Time;durP1;ratioP1;P1;durP2;ratioP2;P2;SDS_P1;SDS_P2;PMS_P1;PMS_P2;Temp;Humidity;BMP_temperature;BMP_pressure;BME280_temperature;BME280_humidity;BME280_pressure;Samples;Min_cycle;Max_cycle;Signal;HPM_P1;HPM_P2
2023/06/30 00:01:48;;;;;;;4.10;1.70;;;;;;;19.17;77.97;98191.84;5035114;28;20238;-58
2023/06/30 00:04:23;;;;;;;1.90;1.80;;;;;;;19.36;76.57;98204.66;5035278;28;20177;-55
2023/06/30 00:06:49;;;;;;;1.70;1.60;;;;;;;19.32;76.65;98204.16;5035333;28;20177;-57
2023/06/30 00:09:19;;;;;;;1.73;1.63;;;;;;;19.26;77.49;98188.25;5035208;28;20178;-58
2023/06/30 00:11:44;;;;;;;2.00;1.80;;;;;;;19.37;78.03;98195.78;5035211;28;20174;-58
2023/06/30 00:14:10;;;;;;;3.08;1.83;;;;;;;19.14;77.99;98171.16;5035116;28;20189;-58
2023/06/30 00:16:35;;;;;;;2.15;1.60;;;;;;;19.26;78.96;98198.75;5035114;28;20166;-58
2023/06/30 00:19:01;;;;;;;3.03;1.80;;;;;;;19.30;78.72;98202.69;5035038;28;20198;-58
2023/06/30 00:21:27;;;;;;;2.92;1.38;;;;;;;19.41;79.09;98202.34;5035096;28;20256;-58
2023/06/30 00:23:52;;;;;;;2.42;1.58;;;;;;;19.26;77.90;98183.00;5034724;28;20174;-55
2023/06/30 00:26:18;;;;;;;1.55;1.45;;;;;;;19.30;77.10;98190.38;5034480;28;20644;-58
2023/06/30 00:28:43;;;;;;;4.53;1.67;;;;;;;19.14;77.92;98186.91;5034819;28;20625;-58
2023/06/30 00:31:08;;;;;;;2.08;1.70;;;;;;;19.06;78.84;98181.66;5034571;28;20193;-58
2023/06/30 00:33:35;;;;;;;1.92;1.83;;;;;;;19.18;78.52;98207.38;5035087;28;20181;-58
2023/06/30 00:36:00;;;;;;;2.08;1.98;;;;;;;19.13;79.95;98204.44;5035078;28;20652;-58
2023/06/30 00:38:26;;;;;;;3.13;1.65;;;;;;;19.10;79.48;98201.31;5034657;28;20197;-58
2023/06/30 00:40:51;;;;;;;1.83;1.60;;;;;;;19.16;77.85;98205.91;5034402;28;20178;-58
2023/06/30 00:43:16;;;;;;;2.35;1.67;;;;;;;19.06;77.78;98189.53;5034392;28;20180;-58
2023/06/30 00:45:42;;;;;;;3.75;1.70;;;;;;;18.94;78.35;98172.47;5034444;28;20789;-58
2023/06/30 00:48:07;;;;;;;3.25;2.08;;;;;;;19.08;78.89;98206.75;5034501;28;20189;-58
2023/06/30 00:50:33;;;;;;;4.50;1.80;;;;;;;19.01;79.02;98194.44;5034441;28;20636;-58
2023/06/30 00:52:59;;;;;;;2.05;1.80;;;;;;;19.11;79.32;98200.34;5034177;28;20181;-58
2023/06/30 00:55:25;;;;;;;2.85;1.80;;;;;;;19.04;79.26;98184.44;5034438;28;20181;-58
2023/06/30 00:57:51;;;;;;;2.33;1.73;;;;;;;18.98;80.43;98176.41;5034298;28;20347;-58
2023/06/30 01:00:17;;;;;;;2.58;2.00;;;;;;;18.98;79.98;98168.53;5034327;28;20622;-58
2023/06/30 01:03:01;;;;;;;2.17;1.95;;;;;;;19.21;78.73;98201.03;5033909;28;20624;-58
2023/06/30 01:05:52;;;;;;;2.00;1.65;;;;;;;19.22;78.56;98197.41;5034628;28;20162;-58
2023/06/30 01:08:31;;;;;;;2.30;1.90;;;;;;;19.19;78.58;98193.31;5033666;28;20224;-56
2023/06/30 01:10:57;;;;;;;2.30;1.90;;;;;;;19.02;79.54;98188.22;5033892;28;20166;-56
2023/06/30 01:13:24;;;;;;;3.55;2.15;;;;;;;18.85;80.12;98169.03;5034095;28;20185;-56
2023/06/30 01:15:52;;;;;;;2.70;2.40;;;;;;;18.85;81.04;98194.41;5071399;28;20671;-56
2023/06/30 01:18:19;;;;;;;2.55;2.35;;;;;;;18.78;81.09;98186.34;5071477;28;20216;-56
2023/06/30 01:20:46;;;;;;;2.50;2.10;;;;;;;18.67;81.67;98196.34;5071445;28;20227;-56
2023/06/30 01:23:34;;;;;;;3.20;2.58;;;;;;;18.60;83.17;98190.09;5071362;28;20230;-56
2023/06/30 01:26:02;;;;;;;2.88;2.67;;;;;;;18.61;83.09;98192.59;5071255;28;20246;-56
2023/06/30 01:28:28;;;;;;;3.42;2.88;;;;;;;18.50;82.75;98173.69;5071290;28;20185;-56
2023/06/30 01:30:55;;;;;;;2.35;2.15;;;;;;;18.57;83.17;98187.78;5071158;28;20257;-56
2023/06/30 01:33:21;;;;;;;2.42;2.33;;;;;;;18.50;84.02;98177.16;5071143;28;20184;-56
2023/06/30 01:35:47;;;;;;;2.65;2.45;;;;;;;18.41;84.01;98164.19;5071039;28;20212;-56
2023/06/30 01:38:12;;;;;;;3.70;2.50;;;;;;;18.45;84.31;98173.34;5070564;28;20639;-56
2023/06/30 01:40:38;;;;;;;2.15;2.05;;;;;;;18.34;85.15;98163.16;5071084;28;20227;-56
2023/06/30 01:43:04;;;;;;;2.15;1.95;;;;;;;18.31;86.69;98179.19;5050846;28;20181;-56
2023/06/30 01:45:30;;;;;;;2.15;1.95;;;;;;;18.15;88.82;98159.00;5050968;28;20196;-56
2023/06/30 01:47:57;;;;;;;2.05;1.92;;;;;;;18.25;90.24;98185.06;5031593;28;20698;-56
2023/06/30 01:50:22;;;;;;;4.50;2.20;;;;;;;18.12;90.80;98159.28;5030943;28;20178;-59
2023/06/30 01:52:49;;;;;;;2.28;2.17;;;;;;;18.26;90.25;98169.19;5030893;28;20212;-56
2023/06/30 01:55:16;;;;;;;3.00;2.75;;;;;;;18.34;88.10;98171.03;5030728;28;20240;-56
2023/06/30 01:57:41;;;;;;;3.40;2.30;;;;;;;18.25;88.03;98156.25;5015096;28;20190;-56
2023/06/30 02:00:07;;;;;;;5.30;3.15;;;;;;;18.34;85.92;98165.78;5010943;28;20210;-56
2023/06/30 02:02:33;;;;;;;3.20;2.63;;;;;;;18.38;85.97;98151.41;5010924;28;20187;-56
2023/06/30 02:04:58;;;;;;;3.22;3.03;;;;;;;18.42;86.09;98150.91;5010887;28;20202;-56
2023/06/30 02:07:24;;;;;;;3.17;2.80;;;;;;;18.62;85.23;98164.56;5010904;28;20186;-57
2023/06/30 02:09:50;;;;;;;5.03;3.33;;;;;;;18.68;85.13;98161.28;5010693;28;20622;-57
2023/06/30 02:12:15;;;;;;;3.30;3.10;;;;;;;18.75;85.04;98173.59;5010809;28;20244;-57
2023/06/30 02:14:41;;;;;;;3.95;2.75;;;;;;;18.58;85.19;98157.97;5025747;28;20197;-57
2023/06/30 02:17:08;;;;;;;4.60;2.97;;;;;;;18.83;84.90;98180.66;5030458;28;20208;-57
2023/06/30 02:19:34;;;;;;;4.18;2.83;;;;;;;18.71;83.88;98159.16;5030345;28;20213;-57
2023/06/30 02:21:59;;;;;;;3.05;2.55;;;;;;;18.73;84.27;98177.34;5030643;28;20201;-57
2023/06/30 02:24:25;;;;;;;3.83;2.90;;;;;;;18.84;83.92;98192.78;5010508;28;20252;-57
2023/06/30 02:26:50;;;;;;;2.83;2.63;;;;;;;18.82;83.35;98192.13;5010600;28;20214;-58
2023/06/30 02:29:15;;;;;;;3.17;2.88;;;;;;;18.80;84.06;98188.81;5010756;28;20322;-58
2023/06/30 02:31:41;;;;;;;2.47;2.28;;;;;;;18.72;85.19;98204.56;5008720;28;20178;-57
2023/06/30 02:34:06;;;;;;;3.00;2.70;;;;;;;18.44;85.95;98174.34;4976512;28;20199;-57
2023/06/30 02:36:32;;;;;;;3.05;2.85;;;;;;;18.60;84.95;98196.16;4932945;29;20191;-57
2023/06/30 02:38:57;;;;;;;3.15;2.40;;;;;;;18.54;85.23;98201.22;4932864;29;20217;-57
2023/06/30 02:41:23;;;;;;;2.78;2.58;;;;;;;18.49;84.79;98203.50;4961300;28;20202;-57
2023/06/30 02:43:48;;;;;;;2.90;2.70;;;;;;;18.46;85.14;98193.31;4971373;28;20270;-57
2023/06/30 02:46:14;;;;;;;2.72;2.50;;;;;;;18.55;85.32;98203.69;4971197;28;20290;-57
2023/06/30 02:48:39;;;;;;;2.70;2.60;;;;;;;18.31;86.12;98190.50;4971344;28;20176;-57
2023/06/30 02:51:04;;;;;;;2.95;2.63;;;;;;;18.36;85.88;98206.56;4971032;28;20184;-57
2023/06/30 02:53:30;;;;;;;3.72;3.08;;;;;;;18.30;86.12;98203.75;4971539;28;20186;-57
2023/06/30 02:55:55;;;;;;;4.20;2.60;;;;;;;18.31;85.65;98194.91;4999336;28;20185;-57
2023/06/30 02:58:22;;;;;;;4.43;3.30;;;;;;;18.14;87.80;98188.75;5010127;28;20186;-57
2023/06/30 03:00:49;;;;;;;3.38;3.17;;;;;;;18.23;88.29;98208.78;5010193;28;20230;-57
2023/06/30 03:03:14;;;;;;;3.20;3.00;;;;;;;18.28;88.43;98222.22;5010037;28;20673;-57
2023/06/30 03:05:40;;;;;;;2.97;2.78;;;;;;;18.10;88.54;98197.94;5010110;28;20216;-57
2023/06/30 03:08:05;;;;;;;3.25;2.95;;;;;;;18.17;87.89;98198.09;5026240;28;20186;-57
2023/06/30 03:10:31;;;;;;;3.40;3.20;;;;;;;18.34;87.12;98210.31;5032473;28;20181;-57
2023/06/30 03:12:56;;;;;;;3.53;3.33;;;;;;;18.39;87.33;98215.91;5032133;28;20173;-57
2023/06/30 03:15:22;;;;;;;3.55;3.35;;;;;;;18.39;86.16;98208.06;5032128;28;20173;-57
2023/06/30 03:17:47;;;;;;;3.30;3.10;;;;;;;18.42;85.70;98192.03;5009882;28;20193;-57
2023/06/30 03:20:13;;;;;;;3.60;3.35;;;;;;;18.44;86.40;98200.53;5009839;28;20210;-57
2023/06/30 03:22:39;;;;;;;2.90;2.70;;;;;;;18.50;87.03;98202.53;5009990;28;20650;-58
2023/06/30 03:25:05;;;;;;;4.78;2.80;;;;;;;18.51;87.05;98206.78;5009892;28;20217;-57
2023/06/30 03:27:31;;;;;;;3.00;2.80;;;;;;;18.43;87.47;98189.22;5009735;28;20341;-57
2023/06/30 03:29:57;;;;;;;3.00;2.80;;;;;;;18.40;87.51;98196.59;5009399;28;20273;-57
2023/06/30 03:32:22;;;;;;;3.28;3.00;;;;;;;18.11;88.43;98162.91;5009837;28;20191;-57
2023/06/30 03:34:48;;;;;;;3.40;3.20;;;;;;;18.12;89.11;98184.69;5009850;28;20668;-57
2023/06/30 03:37:13;;;;;;;4.93;3.30;;;;;;;18.15;89.59;98200.06;5009753;28;20278;-57
2023/06/30 03:39:39;;;;;;;3.17;2.97;;;;;;;17.88;90.63;98166.22;5009747;28;20303;-57
2023/06/30 03:42:05;;;;;;;3.40;3.10;;;;;;;17.90;90.22;98169.53;5009589;28;20183;-57
2023/06/30 03:44:30;;;;;;;3.05;2.85;;;;;;;18.01;91.49;98183.13;4970328;28;20203;-59
2023/06/30 03:46:56;;;;;;;6.45;3.42;;;;;;;17.88;91.11;98164.44;4970463;28;20298;-57
2023/06/30 03:49:21;;;;;;;4.13;3.38;;;;;;;17.93;91.58;98174.44;4984966;28;20796;-57
2023/06/30 03:51:47;;;;;;;3.35;3.05;;;;;;;18.00;90.92;98175.44;4990085;28;20184;-57
2023/06/30 03:54:12;;;;;;;3.53;3.22;;;;;;;18.20;90.12;98184.72;4990343;28;20201;-57
2023/06/30 03:56:38;;;;;;;3.67;3.22;;;;;;;18.13;89.82;98170.59;4990070;28;20187;-57
2023/06/30 03:59:03;;;;;;;6.05;3.60;;;;;;;18.28;89.83;98192.59;4975806;28;20211;-57
2023/06/30 04:01:28;;;;;;;4.45;4.05;;;;;;;18.22;90.50;98186.19;4970998;28;20239;-57
2023/06/30 04:03:54;;;;;;;6.47;3.88;;;;;;;18.40;89.90;98191.34;4974175;28;20184;-57
2023/06/30 04:06:19;;;;;;;3.42;3.05;;;;;;;18.44;88.93;98193.50;4974151;28;20777;-57
2023/06/30 04:08:45;;;;;;;3.65;3.30;;;;;;;18.44;89.19;98201.38;4974298;28;20218;-57
2023/06/30 04:11:11;;;;;;;3.50;3.20;;;;;;;18.43;90.55;98191.03;4974023;28;20188;-57
2023/06/30 04:13:36;;;;;;;3.53;3.05;;;;;;;18.46;89.47;98188.09;4974036;28;20666;-57
2023/06/30 04:16:03;;;;;;;3.72;3.42;;;;;;;18.44;90.13;98176.97;4987994;28;20789;-57
2023/06/30 04:18:28;;;;;;;3.28;3.08;;;;;;;18.46;90.51;98198.56;4973663;28;20202;-57
2023/06/30 04:20:54;;;;;;;3.25;2.95;;;;;;;18.37;89.66;98173.34;4978154;28;20188;-57
2023/06/30 04:23:19;;;;;;;3.15;2.95;;;;;;;18.52;88.87;98187.44;5032618;28;20190;-57
2023/06/30 04:25:45;;;;;;;3.22;3.03;;;;;;;18.62;89.10;98186.34;5032579;28;20201;-57
2023/06/30 04:28:11;;;;;;;3.60;3.30;;;;;;;18.67;89.11;98196.34;5032495;28;20202;-57
2023/06/30 04:30:36;;;;;;;3.97;3.08;;;;;;;18.71;89.83;98197.69;5012602;28;20194;-57
2023/06/30 04:33:02;;;;;;;3.13;2.92;;;;;;;18.82;89.32;98189.50;5012693;28;20277;-57
2023/06/30 04:35:27;;;;;;;2.90;2.70;;;;;;;18.82;89.14;98173.78;5012553;28;20187;-57
2023/06/30 04:37:53;;;;;;;3.78;2.60;;;;;;;18.92;88.49;98167.38;5012366;28;20193;-57
2023/06/30 04:40:18;;;;;;;4.63;2.95;;;;;;;19.10;87.78;98170.69;5012472;28;20253;-57
2023/06/30 04:42:44;;;;;;;3.58;3.28;;;;;;;19.25;86.88;98171.69;5012409;28;20191;-57
2023/06/30 04:45:10;;;;;;;2.90;2.70;;;;;;;19.49;86.03;98202.34;5012377;28;20221;-57
2023/06/30 04:47:35;;;;;;;3.70;3.45;;;;;;;19.45;84.58;98178.22;5012287;28;20213;-57
2023/06/30 04:50:01;;;;;;;3.40;3.20;;;;;;;19.65;83.97;98190.00;5026772;28;20205;-56
2023/06/30 04:52:26;;;;;;;4.15;3.00;;;;;;;19.77;84.26;98190.47;5032097;28;20277;-57
2023/06/30 04:54:52;;;;;;;3.25;2.95;;;;;;;19.87;82.56;98196.38;5032052;28;20186;-57
2023/06/30 04:57:17;;;;;;;3.58;3.13;;;;;;;19.96;80.66;98203.22;5031986;28;20190;-57
2023/06/30 04:59:43;;;;;;;3.83;2.65;;;;;;;19.91;81.48;98174.03;5031854;28;20797;-57
2023/06/30 05:02:10;;;;;;;5.18;2.83;;;;;;;20.09;81.83;98187.78;5031931;28;20618;-57
2023/06/30 05:04:36;;;;;;;3.40;3.03;;;;;;;20.30;80.45;98216.94;5031920;28;20211;-57
2023/06/30 05:07:01;;;;;;;2.65;2.50;;;;;;;20.18;80.50;98184.16;5030118;28;20186;-57
2023/06/30 05:09:27;;;;;;;3.03;2.50;;;;;;;20.37;80.98;98208.22;5028291;28;20680;-57
2023/06/30 05:11:52;;;;;;;2.90;2.70;;;;;;;20.37;80.13;98200.34;5034147;28;20644;-57
2023/06/30 05:14:17;;;;;;;3.38;2.50;;;;;;;20.32;79.33;98180.78;5033970;28;20170;-57
2023/06/30 05:16:43;;;;;;;2.97;2.65;;;;;;;20.45;79.11;98204.75;5051412;28;20246;-57
2023/06/30 05:19:08;;;;;;;2.42;2.28;;;;;;;20.46;80.22;98193.22;5051484;28;20216;-57
2023/06/30 05:21:34;;;;;;;3.30;2.60;;;;;;;20.49;81.13;98185.00;5051547;28;20212;-57
2023/06/30 05:23:59;;;;;;;2.78;2.60;;;;;;;20.60;79.50;98197.75;5051275;28;20580;-57
2023/06/30 05:26:24;;;;;;;2.50;2.40;;;;;;;20.68;79.25;98192.47;5031495;28;20291;-57
2023/06/30 05:28:50;;;;;;;2.70;2.50;;;;;;;20.78;78.92;98199.13;5031403;28;20193;-57
2023/06/30 05:31:15;;;;;;;5.18;2.60;;;;;;;20.85;78.46;98197.44;5031346;28;20228;-57
2023/06/30 05:33:41;;;;;;;4.25;2.33;;;;;;;20.96;77.71;98193.59;5031256;28;20186;-57
2023/06/30 05:36:06;;;;;;;2.80;2.35;;;;;;;21.09;78.44;98199.94;5031225;28;20301;-57
2023/06/30 05:38:31;;;;;;;3.03;2.83;;;;;;;21.11;78.91;98191.88;5011162;28;20226;-58
2023/06/30 05:40:58;;;;;;;3.30;3.00;;;;;;;21.39;78.92;98217.44;5011191;28;20191;-56
2023/06/30 05:43:24;;;;;;;6.65;3.38;;;;;;;21.34;78.11;98219.00;4991483;28;20254;-56
2023/06/30 05:45:49;;;;;;;5.82;3.45;;;;;;;21.49;78.16;98210.13;4991564;28;20187;-56
2023/06/30 05:48:15;;;;;;;2.80;2.60;;;;;;;21.55;73.82;98206.78;4958114;28;20196;-56
2023/06/30 05:50:41;;;;;;;2.50;2.40;;;;;;;21.41;74.01;98188.31;4952784;29;20211;-56
2023/06/30 05:53:06;;;;;;;2.78;2.58;;;;;;;21.61;73.45;98211.34;4952793;28;20272;-56
2023/06/30 05:55:32;;;;;;;4.70;2.70;;;;;;;21.80;73.64;98226.66;4966760;28;20223;-56
2023/06/30 05:57:57;;;;;;;4.35;2.53;;;;;;;21.79;71.62;98214.47;4971945;28;20275;-56
2023/06/30 06:00:24;;;;;;;4.07;2.95;;;;;;;21.75;71.26;98205.31;4971960;28;20208;-56
2023/06/30 06:02:50;;;;;;;2.80;2.60;;;;;;;21.81;70.78;98222.22;4972005;28;20194;-56
2023/06/30 06:05:16;;;;;;;3.55;2.60;;;;;;;21.71;71.02;98213.75;4971962;28;20199;-56
2023/06/30 06:07:41;;;;;;;5.43;2.60;;;;;;;21.87;70.62;98221.50;4971914;28;20187;-56
2023/06/30 06:10:07;;;;;;;4.07;2.67;;;;;;;21.96;70.39;98225.69;5001146;28;20197;-56
2023/06/30 06:12:32;;;;;;;2.35;2.15;;;;;;;22.00;71.10;98226.94;5010798;28;20182;-56
2023/06/30 06:14:59;;;;;;;2.75;2.55;;;;;;;22.01;71.31;98220.69;5010743;28;20207;-56
2023/06/30 06:17:24;;;;;;;3.70;2.90;;;;;;;22.22;70.35;98224.25;5010825;28;20190;-56
2023/06/30 06:19:51;;;;;;;4.13;2.83;;;;;;;22.28;70.97;98220.88;5025609;28;20709;-56
2023/06/30 06:22:17;;;;;;;3.10;2.80;;;;;;;22.27;69.78;98198.13;5032781;28;20531;-56
2023/06/30 06:24:42;;;;;;;3.85;2.88;;;;;;;22.52;69.76;98222.41;5032032;28;20188;-56
2023/06/30 06:27:08;;;;;;;3.35;2.75;;;;;;;22.52;69.55;98201.31;5032750;28;20181;-57
2023/06/30 06:29:33;;;;;;;3.65;2.80;;;;;;;22.63;68.26;98211.41;5032711;28;20652;-57
2023/06/30 06:31:58;;;;;;;2.90;2.67;;;;;;;22.66;68.21;98213.69;5032654;28;20181;-57
2023/06/30 06:34:24;;;;;;;2.90;2.70;;;;;;;;;;5032620;28;20184;-57
2023/06/30 06:36:49;;;;;;;7.53;3.83;;;;;;;22.93;68.59;98226.16;5032601;28;20252;-57
2023/06/30 06:39:15;;;;;;;6.88;3.85;;;;;;;22.99;68.82;98207.75;5032473;28;20198;-57
2023/06/30 06:41:40;;;;;;;3.90;3.60;;;;;;;23.18;68.34;98209.78;5032541;28;20607;-59
2023/06/30 06:44:06;;;;;;;5.28;4.10;;;;;;;23.36;67.25;98212.81;5032445;28;20654;-57
2023/06/30 06:46:31;;;;;;;4.85;4.45;;;;;;;23.48;66.74;98215.75;5032317;28;20252;-57
2023/06/30 06:48:56;;;;;;;4.85;4.35;;;;;;;23.64;64.37;98216.31;5032417;28;20255;-57
2023/06/30 06:51:22;;;;;;;6.55;4.05;;;;;;;23.72;64.77;98210.84;5032386;28;20636;-57
2023/06/30 06:53:48;;;;;;;4.28;3.88;;;;;;;23.85;64.94;98225.00;5049771;28;20223;-57
2023/06/30 06:56:13;;;;;;;7.45;4.15;;;;;;;24.00;65.52;98227.56;5049864;28;20239;-57
2023/06/30 06:58:39;;;;;;;5.75;4.38;;;;;;;24.13;64.50;98224.19;5049779;28;20689;-57
2023/06/30 07:01:05;;;;;;;5.60;4.65;;;;;;;24.19;63.99;98226.84;5049794;28;20181;-57
2023/06/30 07:03:30;;;;;;;7.47;4.13;;;;;;;24.26;63.09;98219.81;5049745;28;20229;-57
2023/06/30 07:05:57;;;;;;;7.90;4.70;;;;;;;24.38;63.12;98228.81;5049586;28;20618;-57
2023/06/30 07:08:23;;;;;;;7.25;4.45;;;;;;;24.29;63.79;98212.28;5049665;28;20240;-57
2023/06/30 07:10:50;;;;;;;5.13;4.70;;;;;;;24.51;62.13;98235.00;5049676;28;20667;-57
2023/06/30 07:13:17;;;;;;;5.28;4.35;;;;;;;24.44;61.91;98220.91;5049590;28;20197;-57
2023/06/30 07:15:44;;;;;;;5.75;4.32;;;;;;;24.54;62.21;98228.47;5009900;28;20188;-57
2023/06/30 07:18:10;;;;;;;4.35;3.92;;;;;;;24.59;62.30;98224.25;5009965;28;20573;-57
2023/06/30 07:20:36;;;;;;;7.05;5.00;;;;;;;24.56;62.52;98197.34;5009831;28;20211;-57
2023/06/30 07:23:01;;;;;;;5.85;4.10;;;;;;;24.80;61.40;98223.31;5009996;28;20555;-57
2023/06/30 07:25:27;;;;;;;8.00;4.75;;;;;;;24.81;60.69;98219.66;4994634;28;20685;-57
2023/06/30 07:27:54;;;;;;;7.10;4.18;;;;;;;24.69;60.46;98198.25;4990335;28;20198;-57
2023/06/30 07:30:25;;;;;;;5.78;4.30;;;;;;;24.73;60.54;98202.13;4990231;28;20269;-57
2023/06/30 07:32:50;;;;;;;4.30;3.90;;;;;;;24.87;60.03;98218.84;4990264;28;20587;-57
2023/06/30 07:35:17;;;;;;;7.82;4.10;;;;;;;24.88;59.30;98208.06;4990299;28;20175;-57
2023/06/30 07:37:43;;;;;;;8.30;4.82;;;;;;;25.09;59.55;98225.63;5008650;28;20679;-57
2023/06/30 07:40:08;;;;;;;4.88;3.95;;;;;;;25.13;58.83;98230.31;5033420;28;20209;-57
2023/06/30 07:42:34;;;;;;;4.90;3.90;;;;;;;25.12;59.44;98226.06;4993981;28;20198;-57
2023/06/30 07:44:59;;;;;;;5.82;4.07;;;;;;;25.08;59.37;98222.16;4993939;28;20191;-57
2023/06/30 07:47:25;;;;;;;4.25;3.70;;;;;;;25.02;60.38;98215.03;4993868;28;20336;-57
2023/06/30 07:49:51;;;;;;;4.07;3.78;;;;;;;24.99;59.85;98204.84;4993981;28;20191;-57
2023/06/30 07:52:16;;;;;;;4.22;3.85;;;;;;;25.25;58.08;98222.66;4996603;28;20689;-57
2023/06/30 07:54:43;;;;;;;5.72;3.97;;;;;;;25.25;58.47;98220.78;5013416;28;20182;-57
2023/06/30 07:57:08;;;;;;;5.57;4.00;;;;;;;25.27;59.70;98208.19;5013318;28;20233;-57
2023/06/30 07:59:34;;;;;;;4.75;3.70;;;;;;;25.45;57.57;98229.59;5013304;28;20311;-57
2023/06/30 08:01:59;;;;;;;4.38;3.97;;;;;;;25.42;58.02;98227.34;5013290;28;20191;-57
2023/06/30 08:04:25;;;;;;;6.00;3.47;;;;;;;25.39;58.02;98224.28;5013231;28;20186;-57
2023/06/30 08:06:51;;;;;;;6.15;4.57;;;;;;;25.31;58.84;98204.09;5013166;28;20688;-57
2023/06/30 08:09:18;;;;;;;4.28;3.85;;;;;;;25.48;57.47;98218.59;5013163;28;20704;-57
2023/06/30 08:11:44;;;;;;;4.95;3.60;;;;;;;25.55;55.88;98211.44;5013107;28;20248;-57
2023/06/30 08:14:09;;;;;;;5.57;3.70;;;;;;;25.49;56.72;98204.31;5043129;28;20200;-57
2023/06/30 08:16:35;;;;;;;5.95;3.65;;;;;;;25.61;56.74;98200.03;5051179;28;20181;-57
2023/06/30 08:19:01;;;;;;;4.32;3.85;;;;;;;25.66;56.86;98221.44;5035046;28;20338;-57
2023/06/30 08:21:26;;;;;;;5.00;3.85;;;;;;;25.73;55.67;98208.97;5035087;28;20174;-57
2023/06/30 08:23:52;;;;;;;6.75;3.75;;;;;;;25.79;55.59;98207.38;5032579;28;20197;-57
2023/06/30 08:26:17;;;;;;;4.65;3.85;;;;;;;25.75;55.07;98199.00;5032570;28;20674;-57
2023/06/30 08:28:43;;;;;;;3.42;3.22;;;;;;;25.81;54.69;98195.53;5032631;28;20186;-57
2023/06/30 08:31:08;;;;;;;7.25;3.50;;;;;;;25.91;55.23;98209.22;5032583;28;20197;-57
2023/06/30 08:33:33;;;;;;;4.15;3.70;;;;;;;25.91;54.17;98200.44;5032505;28;20272;-57
2023/06/30 08:36:00;;;;;;;4.18;3.60;;;;;;;25.87;52.40;98184.09;5032478;28;20564;-57
2023/06/30 08:38:25;;;;;;;3.95;3.60;;;;;;;26.00;52.83;98204.53;5032209;28;20639;-57
2023/06/30 08:40:51;;;;;;;9.25;3.50;;;;;;;25.89;54.04;98171.44;5032418;28;20426;-57
2023/06/30 08:43:22;;;;;;;4.00;3.60;;;;;;;25.90;53.37;98196.97;5032303;28;20186;-57
2023/06/30 08:45:48;;;;;;;3.88;3.22;;;;;;;25.99;52.80;98193.09;5032035;28;20186;-57
2023/06/30 08:48:17;;;;;;;4.90;3.65;;;;;;;26.05;52.46;98197.56;5031855;28;20182;-57
2023/06/30 08:50:44;;;;;;;3.25;3.05;;;;;;;25.88;53.07;98175.13;5032200;28;20272;-57
2023/06/30 08:53:09;;;;;;;4.65;3.42;;;;;;;26.04;53.55;98180.03;5032181;28;20181;-57
2023/06/30 08:55:35;;;;;;;3.63;3.33;;;;;;;25.95;52.81;98156.59;5048009;28;20192;-57
2023/06/30 08:58:00;;;;;;;5.60;2.90;;;;;;;26.09;53.30;98182.88;5051928;28;20182;-57
2023/06/30 09:00:26;;;;;;;4.47;3.25;;;;;;;26.22;53.02;98190.78;5051849;28;20282;-57
2023/06/30 09:02:53;;;;;;;3.50;3.30;;;;;;;26.21;52.28;98175.91;5052119;28;20268;-57
2023/06/30 09:05:26;;;;;;;3.42;3.13;;;;;;;26.06;51.75;98177.97;5051859;28;20193;-57
2023/06/30 09:07:56;;;;;;;4.38;3.05;;;;;;;25.94;52.13;98163.72;5051855;28;20177;-57
2023/06/30 09:10:36;;;;;;;5.35;2.90;;;;;;;26.19;52.45;98183.22;5051572;28;20189;-57
2023/06/30 09:13:05;;;;;;;5.68;3.30;;;;;;;26.27;52.64;98175.06;5051674;28;20239;-57
2023/06/30 09:15:32;;;;;;;3.00;2.80;;;;;;;26.45;50.15;98180.50;5051922;28;20561;-57
2023/06/30 09:17:57;;;;;;;2.78;2.53;;;;;;;26.54;49.25;98181.91;5051564;28;20264;-57
2023/06/30 09:20:23;;;;;;;4.28;2.47;;;;;;;26.64;48.15;98176.97;5051465;28;20209;-57
2023/06/30 09:22:48;;;;;;;2.60;2.40;;;;;;;26.73;48.21;98180.19;5051421;28;20185;-58
2023/06/30 09:25:26;;;;;;;6.65;2.53;;;;;;;26.80;48.03;98176.50;5051311;28;20188;-58
2023/06/30 09:27:55;;;;;;;5.70;2.65;;;;;;;26.90;47.70;98181.31;5051450;28;20292;-58
2023/06/30 09:30:33;;;;;;;2.60;2.40;;;;;;;26.80;46.91;98141.13;5051382;28;20193;-58
2023/06/30 09:32:59;;;;;;;2.85;2.45;;;;;;;27.00;46.70;98155.91;5051317;28;20181;-57
2023/06/30 09:35:25;;;;;;;5.50;2.67;;;;;;;27.15;45.51;98169.72;5051518;28;20575;-57
2023/06/30 09:37:50;;;;;;;3.22;2.58;;;;;;;27.09;46.34;98140.53;5051279;28;20243;-57
2023/06/30 09:40:23;;;;;;;2.50;2.25;;;;;;;26.88;47.28;98152.31;5050158;28;20585;-57
2023/06/30 09:42:55;;;;;;;3.30;2.33;;;;;;;26.86;46.06;98132.31;5033633;28;20249;-57
2023/06/30 09:45:20;;;;;;;3.00;2.58;;;;;;;27.05;46.32;98137.50;5033922;28;20166;-57
2023/06/30 09:47:53;;;;;;;3.67;2.75;;;;;;;27.09;46.73;98136.06;5033118;28;20194;-57
2023/06/30 09:50:25;;;;;;;3.38;2.70;;;;;;;27.15;45.22;98143.16;5033135;28;20170;-57
2023/06/30 09:52:51;;;;;;;2.42;2.22;;;;;;;27.14;45.07;98144.19;5033442;28;20543;-57
2023/06/30 09:55:17;;;;;;;3.75;2.63;;;;;;;27.12;45.42;98118.88;5033352;28;20179;-57
2023/06/30 09:57:43;;;;;;;5.60;2.65;;;;;;;27.31;46.06;98132.03;5032978;28;20255;-57
2023/06/30 10:00:16;;;;;;;3.38;2.40;;;;;;;27.40;45.74;98138.69;5032366;28;20284;-57
2023/06/30 10:02:43;;;;;;;2.70;2.50;;;;;;;27.24;44.93;98122.47;5033181;28;20182;-58
2023/06/30 10:05:11;;;;;;;2.65;2.45;;;;;;;27.38;44.20;98127.47;5032971;28;20178;-60
2023/06/30 10:07:40;;;;;;;3.70;2.70;;;;;;;27.33;44.36;98121.97;5033038;28;20261;-57
2023/06/30 10:10:08;;;;;;;5.07;2.20;;;;;;;27.53;43.31;98138.56;5032981;28;20707;-57
2023/06/30 10:12:35;;;;;;;3.75;2.40;;;;;;;27.52;43.65;98120.19;5032948;28;20554;-57
2023/06/30 10:15:02;;;;;;;3.85;2.38;;;;;;;27.66;43.93;98135.81;5032991;28;20174;-57
2023/06/30 10:17:29;;;;;;;3.10;2.28;;;;;;;27.73;43.22;98112.63;5032654;28;20640;-57
2023/06/30 10:19:55;;;;;;;2.72;1.88;;;;;;;27.81;42.63;98100.91;5032832;28;20190;-57
2023/06/30 10:22:21;;;;;;;3.10;2.55;;;;;;;27.87;43.13;98100.81;5032616;28;20212;-57
2023/06/30 10:24:48;;;;;;;2.78;2.20;;;;;;;27.88;42.66;98128.25;5032838;28;20197;-57
2023/06/30 10:27:18;;;;;;;2.35;2.20;;;;;;;27.97;41.80;98117.09;5032561;28;20535;-58
2023/06/30 10:29:45;;;;;;;3.35;2.63;;;;;;;27.99;41.77;98114.22;5032767;28;20678;-57
2023/06/30 10:32:11;;;;;;;2.42;2.25;;;;;;;27.96;41.02;98093.34;5032721;28;20177;-58
2023/06/30 10:34:36;;;;;;;3.95;2.13;;;;;;;28.18;41.21;98110.50;5030253;28;20182;-57
2023/06/30 10:37:03;;;;;;;5.50;2.20;;;;;;;28.22;41.01;98109.81;5030292;28;20197;-57
2023/06/30 10:39:29;;;;;;;3.58;2.40;;;;;;;28.33;41.87;98097.63;5030099;28;20224;-57
2023/06/30 10:41:59;;;;;;;3.17;2.55;;;;;;;28.51;41.85;98110.94;5030182;28;20183;-57
2023/06/30 10:44:40;;;;;;;3.47;2.38;;;;;;;28.46;39.00;98094.81;5030141;28;20170;-57
2023/06/30 10:47:06;;;;;;;2.65;2.45;;;;;;;28.40;40.84;98077.88;5030024;28;20263;-57
2023/06/30 10:49:36;;;;;;;2.25;2.13;;;;;;;28.59;40.13;98074.16;5030098;28;20240;-57
2023/06/30 10:52:10;;;;;;;2.42;1.88;;;;;;;28.63;39.00;98072.63;5030105;28;20185;-57
2023/06/30 10:54:44;;;;;;;2.13;1.95;;;;;;;29.03;39.57;98095.00;5030034;28;20240;-57
2023/06/30 10:57:12;;;;;;;5.28;2.08;;;;;;;29.31;39.14;98097.81;5029974;28;20191;-58
2023/06/30 10:59:45;;;;;;;4.78;2.15;;;;;;;29.45;38.11;98093.09;5009895;28;20218;-57
2023/06/30 11:02:23;;;;;;;6.85;2.50;;;;;;;29.46;38.42;98089.38;5010189;28;20644;-57
2023/06/30 11:04:52;;;;;;;3.20;1.95;;;;;;;29.72;37.90;98070.22;5010261;28;20190;-57
2023/06/30 11:07:18;;;;;;;2.67;2.47;;;;;;;30.15;37.29;98092.81;5010056;28;20193;-58
2023/06/30 11:09:49;;;;;;;4.53;2.10;;;;;;;30.29;36.48;98088.81;5010108;28;20190;-57
2023/06/30 11:12:18;;;;;;;2.53;2.40;;;;;;;30.55;36.99;98077.56;5027120;28;20192;-57
2023/06/30 11:14:57;;;;;;;2.20;2.10;;;;;;;30.60;35.24;98050.94;5036243;28;20182;-58
2023/06/30 11:17:27;;;;;;;3.65;2.20;;;;;;;30.98;34.86;98072.50;5036449;28;20173;-58
2023/06/30 11:20:13;;;;;;;1.90;1.80;;;;;;;30.99;35.78;98054.56;5036295;28;20312;-58
2023/06/30 11:22:40;;;;;;;2.35;2.20;;;;;;;31.21;35.46;98056.31;5036417;28;20172;-57
2023/06/30 11:25:12;;;;;;;3.30;2.40;;;;;;;31.02;35.40;98068.25;5036309;28;20178;-58
2023/06/30 11:27:39;;;;;;;2.83;2.63;;;;;;;31.22;35.52;98065.13;5036296;28;20218;-57
2023/06/30 11:30:06;;;;;;;3.80;2.08;;;;;;;31.37;35.30;98063.50;5036251;28;20205;-57
2023/06/30 11:32:35;;;;;;;2.72;1.98;;;;;;;31.66;34.14;98064.97;5036167;28;20413;-58